Drogheda, Ireland

12:02 AM IST on April 30, 2017 (GMT +0100)
Kingsgate | | Change Station

Elev 88 ft 53.66 °N, 6.42 °W | Updated 8 minutes ago

Mostly Cloudy
Mostly Cloudy
49.6 °F
Feels Like 50 °F
N
0.6
Wind Variable Wind from West
Gusts 1.9 mph

Today
High -- | Low -- °F
--% Chance of Precip.
Yesterday
High -- | Low -- °F
Precip. -- in
Pressure 29.62 in
Visibility 6.2 miles
Clouds Few 2000 ft
Mostly Cloudy 6000 ft
Windchill 50 °F
Dew Point 44 °F
Humidity 80%
Rainfall 0.01 in
Snow Depth Not available.
5:51 AM 8:54 PM
Waxing Crescent, 17% visible
METAR EIDW 292230Z 12016KT 9999 FEW020 BKN060 10/06 Q1003 NOSIG
Pressure 29.62 in
Visibility 6.2 miles
Clouds Few 2000 ft
Mostly Cloudy 6000 ft
Windchill 50 °F
Dew Point 44 °F
Humidity 80%
Rainfall 0.01 in
Snow Depth Not available.
5:51 AM 8:54 PM
Waxing Crescent, 17% visible
METAR EIDW 292230Z 12016KT 9999 FEW020 BKN060 10/06 Q1003 NOSIG

Get Severe Weather Alerts

Thanks for signing up!

Be on the lookout for a verification email in your inbox.

You'll start receiving the daily forecast at 8 AM.

×

10-Day Weather Forecast

×

Almanac

Astronomy

Apr. 30, 2017 Rise Set
Actual Time
Civil Twilight
Nautical Twilight
Astronomical Twilight
Moon
Length of Visible Light
Length of Day
Tomorrow will be .
, % of the Moon is Illuminated

Today's Extremes

Country Highs Country Lows

Community

WunderPhotos

WunderBlog® & News

Nearby

Air Quality

  Air Quality AQ Index Pollutant
Not available.

Snow Depth

Station Depth Elevation

Earthquake Activity

City Distance Mag. Time & Date
Minimum magnitude displayed is 2.5.

Coastal Water Temperatures

Place Temperature

Stations

Nearby Weather Stations

Station Location Temp. Windchill Dew Point Humidity Wind Precip. Elev Updated Type